Time;durP1;ratioP1;P1;durP2;ratioP2;P2;SDS_P1;SDS_P2;PMS_P1;PMS_P2;Temp;Humidity;BMP_temperature;BMP_pressure;BME280_temperature;BME280_humidity;BME280_pressure;Samples;Min_cycle;Max_cycle;Signal;HPM_P1;HPM_P2
2023/03/23 00:02:14;;;;;;;13.37;9.77;;;10.70;99.90;10.00;99396;;;;580810;242;24102;-79
2023/03/23 00:04:42;;;;;;;14.03;11.30;;;10.70;99.90;10.00;99398;;;;580804;242;24149;-80
2023/03/23 00:07:12;;;;;;;16.43;10.70;;;10.70;99.90;10.00;99398;;;;582067;243;24068;-78
2023/03/23 00:09:40;;;;;;;19.13;10.30;;;10.60;99.90;9.90;99392;;;;582330;243;24155;-79
2023/03/23 00:12:07;;;;;;;15.37;10.27;;;10.60;99.90;9.90;99393;;;;581692;243;24060;-79
2023/03/23 00:14:42;;;;;;;16.13;10.70;;;10.60;99.90;9.90;99395;;;;585825;243;24083;-78
2023/03/23 00:17:10;;;;;;;16.27;9.87;;;10.60;99.90;9.90;99383;;;;586080;243;24122;-74
2023/03/23 00:19:45;;;;;;;15.07;10.80;;;10.60;99.90;9.90;99387;;;;582306;243;24119;-79
2023/03/23 00:22:06;;;;;;;14.80;9.93;;;10.60;99.90;9.80;99388;;;;581508;243;24092;-80
2023/03/23 00:24:33;;;;;;;15.53;9.97;;;10.60;99.90;9.80;99389;;;;582534;243;24175;-78
2023/03/23 00:27:03;;;;;;;14.40;9.83;;;10.50;99.90;9.80;99387;;;;582419;243;24095;-77
2023/03/23 00:29:31;;;;;;;12.67;10.00;;;10.50;99.90;9.80;99381;;;;582539;243;24075;-75
2023/03/23 00:31:58;;;;;;;14.70;9.70;;;10.50;99.90;9.80;99383;;;;581939;243;25122;-78
2023/03/23 00:34:32;;;;;;;13.13;9.80;;;10.50;99.90;9.70;99380;;;;581878;243;24096;-80
2023/03/23 00:36:56;;;;;;;11.93;9.23;;;10.50;99.90;9.70;99381;;;;581951;243;24108;-76
2023/03/23 00:39:24;;;;;;;15.73;11.13;;;10.40;99.90;9.60;99376;;;;582093;243;24114;-77
2023/03/23 00:41:49;;;;;;;14.93;10.47;;;10.40;99.90;9.60;99377;;;;581817;243;24102;-80
2023/03/23 00:44:17;;;;;;;14.87;10.17;;;10.40;99.90;9.60;99373;;;;583340;242;24122;-79
2023/03/23 00:46:49;;;;;;;15.00;10.43;;;10.30;99.90;9.60;99376;;;;583697;242;24069;-78
2023/03/23 00:49:13;;;;;;;15.73;10.93;;;10.30;99.90;9.60;99378;;;;583098;242;24128;-79
2023/03/23 00:51:41;;;;;;;14.93;9.70;;;10.30;99.90;9.60;99376;;;;583418;242;24079;-79
2023/03/23 00:54:09;;;;;;;16.10;12.03;;;10.30;99.90;9.60;99375;;;;583295;242;24065;-79
2023/03/23 00:56:40;;;;;;;14.20;11.00;;;10.30;99.90;9.60;99362;;;;583357;242;25114;-80
2023/03/23 00:59:08;;;;;;;15.43;10.80;;;10.30;99.90;9.60;99365;;;;582690;242;24076;-79
2023/03/23 01:01:33;;;;;;;18.87;10.63;;;10.30;99.90;9.50;99361;;;;585778;242;24087;-81
2023/03/23 01:04:07;;;;;;;15.63;10.23;;;10.30;99.90;9.50;99363;;;;582539;242;24110;-79
2023/03/23 01:06:34;;;;;;;14.63;9.60;;;10.20;99.90;9.50;99350;;;;581984;242;24151;-80
2023/03/23 01:09:00;;;;;;;17.37;9.97;;;10.20;99.90;9.40;99350;;;;582489;242;24081;-77
2023/03/23 01:11:28;;;;;;;14.57;10.33;;;10.20;99.90;9.40;99353;;;;582849;242;24109;-79
2023/03/23 01:13:56;;;;;;;17.77;11.67;;;10.10;99.90;9.30;99341;;;;582507;242;24115;-76
2023/03/23 01:16:24;;;;;;;14.17;10.60;;;10.00;99.90;9.30;99328;;;;582814;242;24188;-77
2023/03/23 01:18:52;;;;;;;16.57;10.87;;;10.00;99.90;9.20;99315;;;;582785;243;24104;-77
2023/03/23 01:21:19;;;;;;;13.53;10.00;;;10.00;99.90;9.20;99315;;;;582047;243;24138;-77
2023/03/23 01:23:48;;;;;;;14.83;10.03;;;10.00;99.90;9.20;99319;;;;582578;243;24073;-75
2023/03/23 01:26:20;;;;;;;14.13;10.80;;;10.00;99.90;9.20;99322;;;;582441;243;24086;-77
2023/03/23 01:28:45;;;;;;;12.87;9.77;;;9.90;99.90;9.30;99325;;;;582328;243;24153;-75
2023/03/23 01:31:13;;;;;;;17.23;10.30;;;10.00;99.90;9.30;99325;;;;582619;243;24081;-74
2023/03/23 01:33:41;;;;;;;12.60;9.53;;;10.00;99.90;9.30;99322;;;;582368;243;24079;-75
2023/03/23 01:36:15;;;;;;;16.20;10.03;;;9.90;99.90;9.20;99328;;;;582317;243;25124;-74
2023/03/23 01:38:43;;;;;;;15.40;9.70;;;9.90;99.90;9.20;99322;;;;582296;243;24111;-77
2023/03/23 01:41:11;;;;;;;14.33;9.77;;;9.90;99.90;9.20;99318;;;;581007;243;24083;-76
2023/03/23 01:44:03;;;;;;;13.90;9.13;;;9.90;99.90;9.10;99320;;;;582744;243;24085;-78
2023/03/23 01:46:37;;;;;;;14.43;8.83;;;9.90;99.90;9.10;99313;;;;582965;243;24084;-75
2023/03/23 01:49:20;;;;;;;15.97;10.20;;;9.90;99.90;9.10;99313;;;;592172;240;24123;-79
2023/03/23 01:51:47;;;;;;;15.70;9.43;;;9.80;99.90;9.10;99311;;;;582851;243;24067;-79
2023/03/23 01:54:19;;;;;;;12.80;8.93;;;9.80;99.90;9.00;99308;;;;580956;242;24065;-80
2023/03/23 01:56:45;;;;;;;14.10;10.60;;;9.80;99.90;9.00;99309;;;;582448;242;24077;-80
2023/03/23 01:59:11;;;;;;;14.27;9.70;;;9.80;99.90;9.00;99311;;;;588896;242;24117;-79
2023/03/23 02:01:44;;;;;;;20.20;9.47;;;9.80;99.90;9.00;99298;;;;583138;242;24126;-80
2023/03/23 02:04:07;;;;;;;12.00;8.63;;;9.70;99.90;9.00;99310;;;;580812;242;24078;-80
2023/03/23 02:06:35;;;;;;;12.60;8.63;;;9.70;99.90;8.90;99310;;;;582904;242;24106;-80
2023/03/23 02:09:05;;;;;;;14.03;9.20;;;9.70;99.90;8.90;99308;;;;582781;242;24080;-79
2023/03/23 02:11:31;;;;;;;13.10;9.53;;;9.60;99.90;8.80;99304;;;;582750;242;24120;-80
2023/03/23 02:13:59;;;;;;;15.20;9.07;;;9.60;99.90;8.80;99308;;;;582596;242;24113;-80
2023/03/23 02:16:32;;;;;;;10.83;9.07;;;9.50;99.90;8.70;99290;;;;582921;242;24122;-79
2023/03/23 02:19:28;;;;;;;12.23;8.30;;;9.50;99.90;8.70;99283;;;;582899;242;24124;-78
2023/03/23 02:22:19;;;;;;;10.47;8.20;;;9.40;99.90;8.60;99276;;;;582691;242;25132;-76
2023/03/23 02:25:05;;;;;;;14.07;8.07;;;9.30;99.90;8.50;99285;;;;580718;242;24086;-80
2023/03/23 02:27:55;;;;;;;10.47;8.53;;;9.30;99.90;8.50;99271;;;;580945;242;24081;-76
2023/03/23 02:30:37;;;;;;;11.57;7.00;;;9.20;99.90;8.40;99269;;;;582394;243;24081;-80
2023/03/23 02:33:30;;;;;;;10.10;7.13;;;9.20;99.90;8.40;99272;;;;582735;243;24104;-79
2023/03/23 02:36:09;;;;;;;13.60;9.53;;;9.10;99.90;8.30;99271;;;;580261;243;24136;-80
2023/03/23 02:38:58;;;;;;;9.73;7.67;;;9.10;99.90;8.30;99269;;;;582315;243;24087;-80
2023/03/23 02:41:29;;;;;;;10.73;7.13;;;9.00;99.90;8.20;99258;;;;582680;243;24079;-78
2023/03/23 02:44:00;;;;;;;13.77;7.90;;;9.00;99.90;8.10;99253;;;;580356;243;24092;-80
2023/03/23 02:46:28;;;;;;;13.30;10.53;;;8.90;99.90;8.10;99255;;;;576824;243;35279;-80
2023/03/23 02:48:55;;;;;;;11.30;9.10;;;8.80;99.90;8.00;99248;;;;581870;243;24078;-79
2023/03/23 02:51:24;;;;;;;13.87;10.67;;;8.80;99.90;8.00;99247;;;;580712;243;24125;-80
2023/03/23 02:53:49;;;;;;;11.20;8.47;;;8.70;99.90;7.90;99237;;;;582156;243;24083;-80
2023/03/23 02:56:16;;;;;;;10.13;7.43;;;8.70;99.90;7.90;99223;;;;582483;243;24075;-79
2023/03/23 02:58:44;;;;;;;11.23;7.40;;;8.70;99.90;7.80;99223;;;;582296;243;24075;-78
2023/03/23 03:01:32;;;;;;;12.10;7.77;;;8.60;99.90;7.80;99225;;;;582287;243;24080;-80
2023/03/23 03:03:55;;;;;;;12.70;8.30;;;8.60;99.90;7.70;99225;;;;582610;243;24162;-78
2023/03/23 03:06:50;;;;;;;12.07;7.90;;;8.50;99.90;7.70;99226;;;;581582;242;24091;-76
2023/03/23 03:09:41;;;;;;;12.33;7.20;;;8.50;99.90;7.60;99223;;;;581540;242;24108;-79
2023/03/23 03:12:10;;;;;;;10.93;7.57;;;8.40;99.90;7.60;99233;;;;578835;242;24167;-77
2023/03/23 03:14:40;;;;;;;7.47;6.43;;;8.40;99.90;7.50;99234;;;;581304;242;24122;-77
2023/03/23 03:17:11;;;;;;;9.83;7.53;;;8.30;99.90;7.50;99242;;;;582734;242;24069;-80
2023/03/23 03:19:40;;;;;;;12.10;8.33;;;8.30;99.90;7.60;99229;;;;580568;242;24147;-76
2023/03/23 03:22:07;;;;;;;11.90;8.27;;;8.30;99.90;7.60;99239;;;;581223;242;24140;-77
2023/03/23 03:24:40;;;;;;;12.37;7.40;;;8.30;99.90;7.60;99232;;;;581060;242;24189;-77
2023/03/23 03:27:04;;;;;;;12.07;7.57;;;8.30;99.90;7.60;99229;;;;582303;242;24138;-77
2023/03/23 03:29:31;;;;;;;10.60;7.07;;;8.30;99.90;7.60;99230;;;;580804;242;24152;-76
2023/03/23 03:31:59;;;;;;;11.23;6.83;;;8.30;99.90;7.50;99227;;;;580695;242;24078;-77
2023/03/23 03:34:31;;;;;;;10.63;7.77;;;8.30;99.90;7.50;99235;;;;581010;242;24077;-78
2023/03/23 03:36:55;;;;;;;13.67;7.67;;;8.30;99.90;7.40;99242;;;;582203;242;24131;-79
2023/03/23 03:39:23;;;;;;;11.13;7.50;;;8.20;99.90;7.30;99235;;;;581059;242;24133;-77
2023/03/23 03:41:51;;;;;;;9.73;6.17;;;8.10;99.90;7.30;99240;;;;582708;243;24083;-79
2023/03/23 03:44:19;;;;;;;12.17;6.53;;;8.10;99.90;7.30;99237;;;;582436;243;24131;-77
2023/03/23 03:46:47;;;;;;;9.43;6.70;;;8.10;99.90;7.30;99234;;;;582515;243;25108;-78
2023/03/23 03:49:18;;;;;;;10.43;7.17;;;8.10;99.90;7.30;99242;;;;582307;243;24081;-79
2023/03/23 03:51:42;;;;;;;14.80;11.10;;;8.10;99.90;7.30;99235;;;;577378;243;36245;-78
2023/03/23 03:54:10;;;;;;;11.13;8.00;;;8.10;99.90;7.40;99236;;;;582894;243;24058;-79
2023/03/23 03:56:40;;;;;;;11.83;7.73;;;8.10;99.90;7.40;99239;;;;582813;243;24074;-80
2023/03/23 03:59:07;;;;;;;10.47;6.77;;;8.20;99.90;7.40;99220;;;;582595;243;24128;-77
2023/03/23 04:01:35;;;;;;;12.93;7.30;;;8.20;99.90;7.40;99217;;;;580599;243;24216;-75
2023/03/23 04:04:05;;;;;;;8.23;6.90;;;8.20;99.90;7.40;99227;;;;580764;243;24077;-77
2023/03/23 04:06:32;;;;;;;10.17;6.90;;;8.20;99.90;7.40;99224;;;;581949;243;24069;-76
2023/03/23 04:09:08;;;;;;;16.23;8.00;;;8.20;99.90;7.40;99232;;;;582545;243;24072;-76
2023/03/23 04:11:33;;;;;;;8.60;6.47;;;8.20;99.90;7.50;99225;;;;581849;243;24075;-76
2023/03/23 04:14:02;;;;;;;16.70;7.10;;;8.30;99.90;7.50;99217;;;;582355;243;24110;-75
2023/03/23 04:16:29;;;;;;;9.30;7.07;;;8.30;99.90;7.60;99214;;;;582277;243;24079;-76
2023/03/23 04:18:57;;;;;;;14.50;7.20;;;8.40;99.90;7.70;99223;;;;583683;242;24106;-76
2023/03/23 04:21:28;;;;;;;9.00;6.80;;;8.40;99.90;7.70;99218;;;;583738;242;24080;-78
2023/03/23 04:23:53;;;;;;;8.63;5.47;;;8.50;99.90;7.80;99206;;;;583246;242;24077;-77
2023/03/23 04:26:22;;;;;;;8.07;6.23;;;8.60;99.90;7.80;99202;;;;583361;242;24108;-76
2023/03/23 04:28:50;;;;;;;9.17;6.23;;;8.60;99.90;7.90;99205;;;;583087;242;24165;-75
2023/03/23 04:31:21;;;;;;;10.93;7.03;;;8.70;99.90;7.90;99192;;;;583232;242;24228;-75
2023/03/23 04:33:46;;;;;;;8.80;6.93;;;8.70;99.90;7.90;99198;;;;582754;242;24079;-78
2023/03/23 04:36:15;;;;;;;8.17;6.43;;;8.70;99.90;7.90;99206;;;;582867;242;24084;-77
2023/03/23 04:38:44;;;;;;;9.40;6.43;;;8.70;99.90;7.90;99203;;;;582731;242;24141;-76
2023/03/23 04:41:12;;;;;;;11.67;6.33;;;8.70;99.90;7.90;99201;;;;582607;242;24140;-78
2023/03/23 04:43:41;;;;;;;11.13;6.40;;;8.80;99.90;8.00;99192;;;;582550;242;24201;-78
2023/03/23 04:46:08;;;;;;;7.80;6.23;;;8.80;99.90;8.00;99186;;;;582709;242;24182;-79
2023/03/23 04:48:34;;;;;;;10.77;5.77;;;8.80;99.90;8.10;99193;;;;582817;242;25173;-77
2023/03/23 04:51:02;;;;;;;7.00;6.03;;;8.90;99.90;8.20;99200;;;;582550;242;24121;-80
2023/03/23 04:53:33;;;;;;;10.70;6.27;;;9.00;99.90;8.20;99190;;;;582273;243;24077;-75
2023/03/23 04:56:00;;;;;;;10.23;5.93;;;8.90;99.90;8.20;99199;;;;580477;243;24124;-77
2023/03/23 04:58:29;;;;;;;9.87;6.53;;;9.00;99.90;8.30;99200;;;;582117;243;24086;-78
2023/03/23 05:00:54;;;;;;;7.83;6.07;;;9.00;99.90;8.40;99194;;;;581745;243;24095;-77
2023/03/23 05:03:25;;;;;;;13.10;6.57;;;9.20;99.90;8.60;99194;;;;580598;243;24091;-77
2023/03/23 05:05:53;;;;;;;10.53;5.97;;;9.30;99.90;8.70;99181;;;;581896;243;24075;-76
2023/03/23 05:08:24;;;;;;;9.77;5.70;;;9.50;99.90;8.90;99177;;;;582355;243;24085;-76
2023/03/23 05:10:54;;;;;;;9.80;5.90;;;9.60;99.90;8.90;99160;;;;581848;243;24083;-76
2023/03/23 05:13:22;;;;;;;7.80;5.80;;;9.70;99.90;9.00;99162;;;;582369;243;24085;-79
2023/03/23 05:15:50;;;;;;;9.93;6.17;;;9.80;99.90;9.00;99153;;;;591401;243;24132;-76
2023/03/23 05:18:20;;;;;;;8.17;5.37;;;9.80;99.90;9.10;99151;;;;582620;243;24146;-76
2023/03/23 05:20:46;;;;;;;7.60;6.10;;;9.90;99.90;9.20;99158;;;;582141;243;24215;-75
2023/03/23 05:23:14;;;;;;;8.23;5.77;;;9.90;99.90;9.20;99155;;;;582053;243;24136;-76
2023/03/23 05:25:41;;;;;;;9.60;5.73;;;10.00;99.90;9.20;99158;;;;582239;243;24086;-76
2023/03/23 05:28:13;;;;;;;7.90;5.73;;;10.00;99.90;9.30;99156;;;;582213;243;24077;-75
2023/03/23 05:30:41;;;;;;;9.47;5.37;;;10.00;99.90;9.30;99147;;;;583503;242;24116;-76
2023/03/23 05:33:09;;;;;;;10.17;5.43;;;10.20;99.90;9.40;99148;;;;582934;242;24111;-76
2023/03/23 05:35:34;;;;;;;6.83;5.97;;;10.10;99.90;9.50;99147;;;;582655;242;24142;-76
2023/03/23 05:38:03;;;;;;;6.53;5.83;;;10.20;99.90;9.50;99131;;;;583015;242;24132;-76
2023/03/23 05:40:33;;;;;;;9.07;6.07;;;10.30;99.90;9.60;99125;;;;582577;242;24088;-76
2023/03/23 05:42:58;;;;;;;9.70;6.53;;;10.30;99.90;9.60;99130;;;;582588;242;24109;-76
2023/03/23 05:45:26;;;;;;;10.27;5.57;;;10.40;99.90;9.70;99130;;;;582805;242;24122;-77
2023/03/23 05:47:58;;;;;;;10.23;6.23;;;10.40;99.90;9.70;99124;;;;583025;242;24130;-75
2023/03/23 05:50:22;;;;;;;7.93;6.13;;;10.50;99.90;9.80;99133;;;;582312;242;24056;-77
2023/03/23 05:52:51;;;;;;;10.17;6.13;;;10.50;99.90;9.80;99134;;;;582921;242;24068;-74
2023/03/23 05:55:18;;;;;;;9.33;6.23;;;10.60;99.90;9.80;99126;;;;582773;242;24126;-75
2023/03/23 05:57:46;;;;;;;11.57;5.97;;;10.60;99.90;9.90;99126;;;;582743;242;24066;-76
2023/03/23 06:00:18;;;;;;;7.60;6.00;;;10.70;99.90;9.90;99118;;;;582675;242;24100;-75
2023/03/23 06:02:46;;;;;;;10.90;7.03;;;10.70;99.90;10.00;99114;;;;582109;242;24145;-78
2023/03/23 06:05:14;;;;;;;13.77;6.33;;;10.70;99.90;10.10;99112;;;;580307;243;24120;-78
2023/03/23 06:07:39;;;;;;;5.97;5.37;;;10.80;99.90;10.10;99107;;;;582294;243;24105;-82
2023/03/23 06:10:08;;;;;;;8.23;6.03;;;10.90;99.90;10.20;99097;;;;582161;243;24152;-76
2023/03/23 06:12:35;;;;;;;14.47;6.27;;;10.90;99.90;10.30;99097;;;;591283;240;24076;-81
2023/03/23 06:15:07;;;;;;;10.70;6.57;;;11.00;99.90;10.40;99099;;;;582066;243;24113;-77
2023/03/23 06:17:32;;;;;;;17.87;6.00;;;11.20;99.90;10.50;99100;;;;581973;243;24171;-75
2023/03/23 06:20:05;;;;;;;7.80;5.80;;;11.30;99.90;10.60;99103;;;;582208;243;25112;-79
2023/03/23 06:22:29;;;;;;;9.97;5.87;;;11.20;99.90;10.70;99115;;;;581817;243;24100;-76
2023/03/23 06:24:59;;;;;;;8.23;6.40;;;11.40;99.90;10.80;99126;;;;582673;243;24069;-76
2023/03/23 06:27:30;;;;;;;13.83;6.57;;;11.50;99.90;10.80;99122;;;;582662;243;24140;-79
2023/03/23 06:29:56;;;;;;;14.10;7.10;;;11.50;99.90;10.80;99116;;;;582386;243;24059;-79
2023/03/23 06:32:23;;;;;;;19.83;7.40;;;11.60;99.90;10.80;99117;;;;582527;243;24097;-77
2023/03/23 06:34:51;;;;;;;17.83;6.17;;;11.60;99.90;10.80;99115;;;;582626;243;24123;-81
2023/03/23 06:37:21;;;;;;;12.40;6.27;;;11.50;99.90;10.80;99103;;;;580409;243;24071;-76
2023/03/23 06:39:49;;;;;;;10.73;6.07;;;11.50;99.90;10.80;99101;;;;580339;243;24085;-75
2023/03/23 06:42:17;;;;;;;11.63;5.80;;;11.50;99.90;10.80;99094;;;;582026;242;24070;-77
2023/03/23 06:44:46;;;;;;;7.50;5.97;;;11.50;99.90;10.80;99095;;;;583173;242;24272;-78
2023/03/23 06:47:15;;;;;;;12.20;7.20;;;11.50;99.90;10.80;99095;;;;583182;242;24117;-81
2023/03/23 06:49:46;;;;;;;12.00;5.67;;;11.50;99.90;10.80;99091;;;;582942;242;24073;-79
2023/03/23 06:52:10;;;;;;;19.17;6.80;;;11.50;99.90;10.80;99095;;;;580486;242;24080;-77
2023/03/23 06:54:38;;;;;;;15.87;9.17;;;11.50;99.90;11.00;99090;;;;581411;242;24064;-82
2023/03/23 06:57:06;;;;;;;10.53;5.50;;;11.70;99.90;11.10;99064;;;;581366;242;24075;-79
2023/03/23 06:59:34;;;;;;;14.00;6.23;;;11.80;99.90;11.30;99057;;;;582596;242;24052;-79
2023/03/23 07:02:02;;;;;;;7.97;6.00;;;12.00;99.90;11.60;99071;;;;577409;242;35216;-77
2023/03/23 07:04:30;;;;;;;13.23;5.77;;;12.30;99.90;12.00;99070;;;;587403;242;24113;-81
2023/03/23 07:06:59;;;;;;;15.57;5.97;;;13.00;99.90;12.40;99069;;;;580726;242;24104;-80
2023/03/23 07:09:30;;;;;;;14.13;5.63;;;13.30;99.90;12.70;99072;;;;580740;242;24173;-80
2023/03/23 07:11:58;;;;;;;9.93;5.57;;;13.30;99.90;12.90;99058;;;;591389;242;24098;-78
2023/03/23 07:14:23;;;;;;;6.67;5.03;;;13.60;99.90;13.00;99070;;;;582188;242;24080;-79
2023/03/23 07:16:51;;;;;;;11.20;5.50;;;13.70;99.90;13.10;99066;;;;582546;243;24097;-80
2023/03/23 07:19:22;;;;;;;6.27;4.97;;;13.80;99.90;13.40;99071;;;;580540;243;24140;-80
2023/03/23 07:21:47;;;;;;;15.73;5.80;;;14.00;99.90;13.70;99082;;;;582172;243;24091;-78
2023/03/23 07:24:18;;;;;;;12.73;6.13;;;14.60;99.90;14.10;99100;;;;582357;243;24137;-80
2023/03/23 07:26:44;;;;;;;23.27;5.87;;;14.80;99.90;14.20;99100;;;;581981;243;24140;-79
2023/03/23 07:29:12;;;;;;;10.27;4.93;;;14.80;99.90;13.90;99085;;;;580558;243;24131;-79
2023/03/23 07:31:42;;;;;;;8.40;4.20;;;14.70;99.90;13.70;99067;;;;580456;243;24126;-77
2023/03/23 07:34:09;;;;;;;10.93;5.63;;;14.50;99.90;13.60;99063;;;;582352;243;24158;-78
2023/03/23 07:36:37;;;;;;;14.33;5.87;;;14.40;99.90;13.70;99057;;;;580695;243;24163;-77
2023/03/23 07:39:08;;;;;;;15.23;5.33;;;14.40;99.90;13.70;99065;;;;582355;243;24089;-79
2023/03/23 07:41:36;;;;;;;18.03;5.97;;;14.40;99.90;13.90;99071;;;;580606;243;24065;-78
2023/03/23 07:44:08;;;;;;;10.13;5.57;;;14.50;99.90;14.10;99070;;;;580560;243;24168;-80
2023/03/23 07:46:32;;;;;;;11.17;6.17;;;14.70;99.90;14.40;99074;;;;581950;243;24196;-80
2023/03/23 07:49:04;;;;;;;8.73;4.77;;;14.90;99.90;14.60;99063;;;;591309;239;24081;-79
2023/03/23 07:51:28;;;;;;;11.10;5.43;;;15.10;99.90;14.80;99060;;;;582125;240;24070;-78
2023/03/23 07:53:56;;;;;;;9.03;4.60;;;15.40;99.90;15.00;99065;;;;582292;242;24055;-77
2023/03/23 07:56:24;;;;;;;7.90;4.10;;;15.60;99.90;14.90;99060;;;;583576;242;24085;-78
2023/03/23 07:58:51;;;;;;;9.13;4.63;;;15.60;99.90;14.80;99050;;;;583113;242;24097;-77
2023/03/23 08:01:19;;;;;;;8.60;5.07;;;15.50;99.90;14.60;99038;;;;582934;242;24192;-76
2023/03/23 08:03:50;;;;;;;7.90;4.30;;;15.40;99.90;14.50;99042;;;;582903;242;24048;-77
2023/03/23 08:06:15;;;;;;;4.57;3.93;;;15.20;99.90;14.40;99035;;;;582597;242;24088;-77
2023/03/23 08:08:43;;;;;;;9.90;4.90;;;15.10;99.90;14.30;99038;;;;582716;242;24103;-77
2023/03/23 08:11:15;;;;;;;5.50;3.90;;;15.00;99.90;14.40;99039;;;;582658;242;24099;-79
2023/03/23 08:13:40;;;;;;;10.67;4.87;;;15.00;99.90;14.40;99057;;;;579912;242;24069;-77
2023/03/23 08:16:09;;;;;;;19.30;4.87;;;15.00;99.90;14.50;99050;;;;580834;242;24085;-80
2023/03/23 08:18:37;;;;;;;16.50;5.87;;;15.20;99.90;14.60;99048;;;;582531;242;24137;-80
2023/03/23 08:21:05;;;;;;;15.23;6.00;;;15.30;99.90;14.70;99055;;;;582129;242;24080;-79
2023/03/23 08:23:33;;;;;;;14.60;5.80;;;15.20;99.90;14.80;99061;;;;582461;242;24060;-76
2023/03/23 08:26:04;;;;;;;13.13;5.00;;;15.30;99.90;14.70;99064;;;;580657;242;24215;-79
2023/03/23 08:28:29;;;;;;;5.67;4.50;;;15.40;99.90;14.60;99072;;;;582009;243;24084;-76
2023/03/23 08:30:57;;;;;;;6.60;4.80;;;15.30;99.90;14.50;99076;;;;582179;243;24062;-76
2023/03/23 08:33:25;;;;;;;8.77;4.97;;;15.10;99.90;14.40;99068;;;;582304;243;24067;-77
2023/03/23 08:35:59;;;;;;;4.43;4.03;;;15.10;99.90;14.30;99085;;;;582253;243;24105;-77
2023/03/23 08:38:27;;;;;;;6.37;4.57;;;15.00;99.90;14.30;99077;;;;582622;243;24057;-77
2023/03/23 08:41:04;;;;;;;5.63;3.57;;;14.90;99.90;14.30;99070;;;;582282;243;24117;-77
2023/03/23 08:43:34;;;;;;;4.63;4.13;;;14.90;99.90;14.20;99077;;;;582456;243;24103;-76
2023/03/23 08:46:06;;;;;;;5.63;3.87;;;14.90;99.90;14.30;99081;;;;582085;243;24099;-76
2023/03/23 08:48:30;;;;;;;9.97;4.47;;;14.90;99.90;14.30;99082;;;;581673;243;24087;-76
2023/03/23 08:50:58;;;;;;;8.47;3.90;;;14.90;99.90;14.30;99083;;;;582315;243;24072;-77
2023/03/23 08:53:30;;;;;;;5.50;4.10;;;15.00;99.90;14.30;99089;;;;582176;243;24067;-79
2023/03/23 08:55:55;;;;;;;5.47;3.83;;;14.90;99.90;14.20;99092;;;;582344;243;24119;-79
2023/03/23 08:58:22;;;;;;;7.47;4.23;;;14.80;99.90;14.00;99084;;;;582393;243;24087;-77
2023/03/23 09:00:50;;;;;;;13.23;4.20;;;14.70;99.90;13.80;99088;;;;582677;243;24063;-76
2023/03/23 09:03:18;;;;;;;4.37;3.70;;;14.50;99.90;13.60;99087;;;;580910;240;24116;-79
2023/03/23 09:05:45;;;;;;;4.80;3.97;;;14.30;99.90;13.50;99078;;;;583759;242;24082;-81
2023/03/23 09:08:13;;;;;;;5.07;3.90;;;14.20;99.90;13.50;99084;;;;583456;242;24100;-81
2023/03/23 09:10:42;;;;;;;3.87;3.57;;;14.10;99.90;13.40;99079;;;;583067;242;24077;-79
2023/03/23 09:13:10;;;;;;;8.57;4.20;;;14.00;99.90;13.30;99076;;;;581118;242;24067;-81
2023/03/23 09:15:37;;;;;;;3.60;3.30;;;13.90;99.90;13.30;99087;;;;582851;242;24068;-80
2023/03/23 09:18:06;;;;;;;6.73;3.73;;;14.00;99.90;13.30;99086;;;;582738;242;24071;-80
2023/03/23 09:20:36;;;;;;;8.57;3.97;;;14.00;99.90;13.30;99095;;;;582883;242;24128;-81
2023/03/23 09:23:02;;;;;;;9.80;3.83;;;14.00;99.90;13.40;99088;;;;591336;241;24143;-81
2023/03/23 09:25:31;;;;;;;10.37;4.27;;;14.00;99.90;13.40;99092;;;;582649;242;24082;-78
2023/03/23 09:27:59;;;;;;;4.20;3.50;;;14.00;99.90;13.40;99100;;;;582497;242;24079;-81
2023/03/23 09:30:30;;;;;;;11.30;4.33;;;14.10;99.90;13.50;99088;;;;582655;242;24107;-81
2023/03/23 09:33:00;;;;;;;17.10;4.97;;;14.20;99.90;13.70;99094;;;;582520;242;24158;-78
2023/03/23 09:35:27;;;;;;;4.60;3.13;;;14.50;99.90;13.90;99087;;;;582153;242;24064;-79
2023/03/23 09:37:54;;;;;;;5.97;3.17;;;14.40;99.90;14.10;99083;;;;582621;242;24121;-79
2023/03/23 09:40:25;;;;;;;8.30;4.20;;;14.60;99.90;14.10;99076;;;;582328;243;24114;-79
2023/03/23 09:42:58;;;;;;;5.07;3.40;;;14.80;99.90;14.20;99085;;;;582220;243;24113;-79
2023/03/23 09:45:34;;;;;;;5.33;3.93;;;14.80;99.90;14.20;99096;;;;581715;243;24067;-80
2023/03/23 09:48:36;;;;;;;3.80;3.40;;;14.80;99.90;14.10;99090;;;;582063;243;24091;-78
2023/03/23 09:51:38;;;;;;;6.57;3.70;;;14.80;99.90;14.20;99083;;;;582596;243;24109;-77
2023/03/23 09:54:16;;;;;;;4.85;4.05;;;14.90;99.90;14.30;99092;;;;576883;243;35231;-76
2023/03/23 09:56:43;;;;;;;4.57;3.73;;;14.90;99.90;14.30;99093;;;;582108;243;24142;-78
2023/03/23 09:59:24;;;;;;;4.87;3.50;;;14.90;99.90;14.30;99093;;;;582323;243;24085;-77
2023/03/23 10:01:52;;;;;;;3.90;3.60;;;14.90;99.90;14.30;99087;;;;582022;243;24115;-78
2023/03/23 10:04:35;;;;;;;4.07;3.60;;;14.90;99.90;14.40;99092;;;;582303;243;24123;-78
2023/03/23 10:07:11;;;;;;;4.30;3.27;;;15.00;99.90;14.30;99092;;;;581687;243;24085;-78
2023/03/23 10:09:40;;;;;;;4.97;3.00;;;14.80;99.90;14.20;99090;;;;582133;243;24132;-79
2023/03/23 10:12:17;;;;;;;11.07;3.57;;;14.80;99.90;14.20;99090;;;;582036;243;24122;-77
2023/03/23 10:15:10;;;;;;;4.97;3.60;;;14.80;99.90;14.20;99095;;;;582143;241;24118;-77
2023/03/23 10:17:38;;;;;;;9.50;3.50;;;14.80;99.90;14.10;99107;;;;583730;242;24110;-76
2023/03/23 10:20:20;;;;;;;6.67;3.40;;;14.70;99.90;14.00;99098;;;;578882;242;24082;-78
2023/03/23 10:23:12;;;;;;;4.53;3.23;;;14.60;99.90;13.90;99096;;;;583146;242;24127;-77
2023/03/23 10:25:43;;;;;;;4.60;2.87;;;14.60;99.90;13.90;99101;;;;582720;242;24053;-79
2023/03/23 10:28:12;;;;;;;6.63;3.03;;;14.60;99.90;13.90;99096;;;;582229;242;24125;-80
2023/03/23 10:30:51;;;;;;;5.97;3.20;;;14.60;99.90;13.90;99105;;;;583034;242;24130;-78
2023/03/23 10:33:34;;;;;;;3.20;2.60;;;14.60;99.90;13.90;99098;;;;582790;242;24106;-77
2023/03/23 10:36:02;;;;;;;9.80;3.17;;;14.60;99.90;13.90;99097;;;;582114;242;24067;-78
2023/03/23 10:38:35;;;;;;;3.23;2.90;;;14.50;99.90;13.90;99103;;;;582249;242;24139;-78
2023/03/23 10:41:12;;;;;;;4.53;2.50;;;14.50;99.90;13.90;99110;;;;582745;242;24147;-80
2023/03/23 10:43:40;;;;;;;2.20;2.10;;;14.50;99.90;14.00;99106;;;;582855;242;24092;-81
2023/03/23 10:46:20;;;;;;;3.43;2.70;;;14.60;99.90;14.00;99116;;;;582385;242;24081;-78
2023/03/23 10:48:49;;;;;;;2.87;2.20;;;14.60;99.90;13.90;99107;;;;582379;242;24070;-80
2023/03/23 10:51:16;;;;;;;2.83;2.43;;;14.50;99.90;13.80;99102;;;;582723;243;24144;-77
2023/03/23 10:53:44;;;;;;;5.43;2.33;;;14.50;99.90;13.70;99101;;;;582550;243;24081;-76
2023/03/23 10:56:24;;;;;;;3.97;2.10;;;14.30;99.90;13.50;99097;;;;582343;243;24074;-76
2023/03/23 10:58:55;;;;;;;4.30;1.77;;;14.20;99.90;13.50;99113;;;;581783;243;24076;-77
2023/03/23 11:01:23;;;;;;;1.83;1.73;;;14.10;99.90;13.40;99108;;;;582060;243;24071;-76
2023/03/23 11:03:51;;;;;;;4.13;1.80;;;14.00;99.90;13.40;99106;;;;581491;243;24102;-78
2023/03/23 11:06:24;;;;;;;2.20;2.00;;;14.00;99.90;13.40;99117;;;;582172;243;24136;-78
2023/03/23 11:09:14;;;;;;;3.80;2.00;;;14.00;99.90;13.50;99106;;;;581826;243;24089;-79
2023/03/23 11:11:46;;;;;;;4.17;1.87;;;14.10;99.90;13.50;99110;;;;576110;243;24158;-76
2023/03/23 11:14:34;;;;;;;4.03;1.97;;;14.20;99.90;13.60;99108;;;;582152;243;24126;-77
2023/03/23 11:17:00;;;;;;;4.50;1.50;;;14.20;99.90;13.60;99112;;;;581599;243;24104;-78
2023/03/23 11:19:27;;;;;;;2.10;1.90;;;14.20;99.90;13.60;99112;;;;582171;243;24090;-77
2023/03/23 11:21:59;;;;;;;1.80;1.70;;;14.20;99.90;13.60;99109;;;;582368;243;24098;-77
2023/03/23 11:24:24;;;;;;;1.90;1.80;;;14.20;99.90;13.60;99116;;;;582038;243;24085;-78
2023/03/23 11:26:55;;;;;;;4.93;1.70;;;14.20;99.90;13.60;99105;;;;583184;242;24073;-79
2023/03/23 11:29:23;;;;;;;6.90;2.30;;;14.20;99.90;13.80;99105;;;;583616;242;24058;-83
2023/03/23 11:31:52;;;;;;;3.83;1.67;;;14.40;99.90;14.00;99110;;;;583375;242;24132;-77
2023/03/23 11:34:30;;;;;;;3.63;1.93;;;14.60;99.90;14.00;99103;;;;582568;242;24078;-77